Terminal Aerodrome Forecast
Issued by NWS

Home | Current Version | Previous Version | Text Only | Print | Product List | Glossary On
Versions: 1 2 3 4 5 6 7 8 9 10 11 12 13 14 15 16 17 18 19 20 21 22 23 24 25 26
834
FTUS42 TJSJ 201139
TAFKPK
TAF
TKPK 201139Z 2012/2112 VRB04KT P6SM FEW022
     FM201400 03007KT P6SM FEW025
     FM202100 VRB03KT P6SM FEW025
      AMD NOT SKED 2102/2111=

USA.gov is the U.S. government's official web portal to all federal, state and local government web resources and services.